Time;durP1;ratioP1;P1;durP2;ratioP2;P2;SDS_P1;SDS_P2;PMS_P1;PMS_P2;Temp;Humidity;BMP_temperature;BMP_pressure;BME280_temperature;BME280_humidity;BME280_pressure;Samples;Min_cycle;Max_cycle;Signal;HPM_P1;HPM_P2
2024/01/21 00:02:02;;;;;;;22.73;13.77;;;;;;;;;;5031435;28;20202;-71
2024/01/21 00:04:29;;;;;;;24.38;14.18;;;;;;;;;;5031828;28;20198;-71
2024/01/21 00:06:55;;;;;;;21.75;14.07;;;;;;;;;;5031916;28;20221;-71
2024/01/21 00:09:22;;;;;;;26.52;14.20;;;;;;;;;;5033248;28;20193;-71
2024/01/21 00:11:48;;;;;;;23.88;14.18;;;;;;;;;;5034211;28;20222;-71
2024/01/21 00:14:14;;;;;;;22.60;14.02;;;;;;;;;;5034516;28;20202;-71
2024/01/21 00:16:40;;;;;;;24.77;14.18;;;;;;;;;;5034319;28;20213;-71
2024/01/21 00:19:07;;;;;;;25.75;14.07;;;;;;;;;;5034192;28;20260;-71
2024/01/21 00:21:34;;;;;;;24.27;14.50;;;;;;;;;;5035043;28;20193;-71
2024/01/21 00:24:00;;;;;;;24.92;14.70;;;;;;;;;;5034240;28;20247;-71
2024/01/21 00:26:27;;;;;;;24.85;14.00;;;;;;;;;;5026528;28;20226;-71
2024/01/21 00:28:53;;;;;;;22.75;13.60;;;;;;;;;;5034219;28;20584;-71
2024/01/21 00:31:19;;;;;;;20.55;12.60;;;;;;;;;;5034648;28;20229;-71
2024/01/21 00:33:45;;;;;;;22.65;13.20;;;;;;;;;;5034308;28;20256;-71
2024/01/21 00:36:12;;;;;;;22.50;13.40;;;;;;;;;;5034242;28;20226;-71
2024/01/21 00:38:41;;;;;;;22.67;13.32;;;;;;;;;;5034312;28;20279;-72
2024/01/21 00:41:08;;;;;;;21.17;12.55;;;;;;;;;;5034158;28;20695;-71
2024/01/21 00:43:34;;;;;;;22.60;14.13;;;;;;;;;;5034227;28;20202;-71
2024/01/21 00:46:00;;;;;;;23.15;14.10;;;;;;;;;;5033963;28;20709;-71
2024/01/21 00:48:26;;;;;;;23.65;13.45;;;;;;;;;;5033853;28;20686;-71
2024/01/21 00:50:52;;;;;;;23.80;13.63;;;;;;;;;;5034288;28;20591;-71
2024/01/21 00:53:19;;;;;;;21.98;13.57;;;;;;;;;;5034053;28;20217;-71
2024/01/21 00:55:46;;;;;;;22.98;13.57;;;;;;;;;;5034470;28;20275;-71
2024/01/21 00:58:13;;;;;;;20.42;13.70;;;;;;;;;;5033933;28;20205;-71
2024/01/21 01:00:39;;;;;;;20.65;13.10;;;;;;;;;;5034050;28;20213;-71
2024/01/21 01:03:05;;;;;;;21.83;13.52;;;;;;;;;;5033584;28;20210;-71
2024/01/21 01:05:31;;;;;;;22.65;13.43;;;;;;;;;;5033401;28;20217;-71
2024/01/21 01:07:57;;;;;;;22.10;12.85;;;;;;;;;;5033287;28;20200;-71
2024/01/21 01:10:24;;;;;;;36.00;14.60;;;;;;;;;;5033234;28;20593;-71
2024/01/21 01:12:52;;;;;;;22.10;13.43;;;;;;;;;;5033648;28;20626;-71
2024/01/21 01:15:18;;;;;;;20.48;12.60;;;;;;;;;;5033334;28;20279;-71
2024/01/21 01:17:47;;;;;;;25.23;13.75;;;;;;;;;;5033305;28;20248;-71
2024/01/21 01:20:13;;;;;;;24.02;13.80;;;;;;;;;;5033477;28;20210;-71
2024/01/21 01:22:40;;;;;;;26.13;15.60;;;;;;;;;;5033119;28;20201;-71
2024/01/21 01:25:07;;;;;;;23.92;14.88;;;;;;;;;;5033499;28;20198;-71
2024/01/21 01:27:33;;;;;;;25.23;15.20;;;;;;;;;;5033076;28;20206;-71
2024/01/21 01:30:00;;;;;;;30.63;16.38;;;;;;;;;;5033070;28;20209;-71
2024/01/21 01:32:27;;;;;;;27.05;15.20;;;;;;;;;;5032706;28;20287;-71
2024/01/21 01:34:54;;;;;;;30.00;17.52;;;;;;;;;;5032918;28;20205;-71
2024/01/21 01:37:21;;;;;;;27.83;17.30;;;;;;;;;;5032770;28;20265;-71
2024/01/21 01:39:47;;;;;;;34.05;18.50;;;;;;;;;;5032993;28;20248;-71
2024/01/21 01:42:13;;;;;;;30.55;16.92;;;;;;;;;;5032704;28;20205;-71
2024/01/21 01:44:40;;;;;;;35.65;19.02;;;;;;;;;;5032926;28;20198;-71
2024/01/21 01:47:09;;;;;;;33.53;19.60;;;;;;;;;;5032742;28;20309;-71
2024/01/21 01:49:35;;;;;;;32.83;19.15;;;;;;;;;;5032437;28;20198;-71
2024/01/21 01:52:01;;;;;;;40.28;20.17;;;;;;;;;;5032801;28;20214;-71
2024/01/21 01:54:29;;;;;;;31.98;19.65;;;;;;;;;;5032700;28;20198;-71
2024/01/21 01:56:55;;;;;;;30.50;19.35;;;;;;;;;;5031894;28;20585;-71
2024/01/21 01:59:21;;;;;;;34.90;20.10;;;;;;;;;;5031920;28;20311;-71
2024/01/21 02:01:48;;;;;;;33.22;18.90;;;;;;;;;;5032353;28;20299;-71
2024/01/21 02:04:15;;;;;;;35.90;20.20;;;;;;;;;;5032368;28;20279;-71
2024/01/21 02:06:42;;;;;;;34.70;20.10;;;;;;;;;;5032219;28;20699;-71
2024/01/21 02:09:08;;;;;;;33.80;19.38;;;;;;;;;;5032695;28;20209;-71
2024/01/21 02:11:34;;;;;;;32.75;19.63;;;;;;;;;;5032374;28;20292;-71
2024/01/21 02:14:01;;;;;;;35.35;20.25;;;;;;;;;;5032212;28;20201;-71
2024/01/21 02:16:27;;;;;;;34.42;19.80;;;;;;;;;;5031835;28;20283;-71
2024/01/21 02:18:53;;;;;;;36.15;19.75;;;;;;;;;;5031863;28;20197;-71
2024/01/21 02:21:21;;;;;;;40.08;21.42;;;;;;;;;;5032220;28;20198;-71
2024/01/21 02:23:48;;;;;;;34.28;19.05;;;;;;;;;;5032100;28;20205;-71
2024/01/21 02:26:15;;;;;;;43.60;23.00;;;;;;;;;;5033331;28;20272;-71
2024/01/21 02:28:41;;;;;;;41.45;22.85;;;;;;;;;;5032676;28;20198;-71
2024/01/21 02:31:07;;;;;;;44.45;23.75;;;;;;;;;;5031962;28;20252;-71
2024/01/21 02:33:33;;;;;;;41.78;23.33;;;;;;;;;;5031968;28;20268;-71
2024/01/21 02:36:00;;;;;;;46.75;24.40;;;;;;;;;;5032038;28;20275;-71
2024/01/21 02:38:26;;;;;;;41.45;22.30;;;;;;;;;;5031679;28;20670;-71
2024/01/21 02:40:53;;;;;;;36.72;22.08;;;;;;;;;;5032110;28;20693;-71
2024/01/21 02:43:20;;;;;;;44.58;24.17;;;;;;;;;;5031782;28;20210;-71
2024/01/21 02:45:46;;;;;;;41.22;22.50;;;;;;;;;;5031626;28;20679;-71
2024/01/21 02:48:12;;;;;;;38.22;23.35;;;;;;;;;;5031528;28;20272;-71
2024/01/21 02:50:38;;;;;;;37.58;22.58;;;;;;;;;;5031852;28;20201;-71
2024/01/21 02:53:05;;;;;;;39.42;22.75;;;;;;;;;;5031576;28;20217;-71
2024/01/21 02:55:31;;;;;;;42.45;24.15;;;;;;;;;;5032029;28;20221;-71
2024/01/21 02:57:59;;;;;;;40.65;23.65;;;;;;;;;;5031551;28;20205;-71
2024/01/21 03:00:25;;;;;;;35.88;21.73;;;;;;;;;;5031578;28;20209;-71
2024/01/21 03:02:52;;;;;;;41.83;23.70;;;;;;;;;;5031404;28;20693;-71
2024/01/21 03:05:19;;;;;;;38.95;22.25;;;;;;;;;;5031515;28;20225;-72
2024/01/21 03:07:45;;;;;;;39.15;22.33;;;;;;;;;;5031443;28;20232;-72
2024/01/21 03:10:11;;;;;;;38.33;21.60;;;;;;;;;;5034678;28;20202;-71
2024/01/21 03:12:37;;;;;;;41.17;21.63;;;;;;;;;;5035317;28;20444;-71
2024/01/21 03:15:05;;;;;;;39.30;22.73;;;;;;;;;;5035288;28;20213;-72
2024/01/21 03:17:31;;;;;;;36.20;21.20;;;;;;;;;;5034996;28;20739;-72
2024/01/21 03:19:58;;;;;;;40.88;21.75;;;;;;;;;;5035261;28;20666;-72
2024/01/21 03:22:24;;;;;;;39.50;22.10;;;;;;;;;;5035283;28;20213;-72
2024/01/21 03:24:51;;;;;;;42.53;21.38;;;;;;;;;;5035624;28;20210;-72
2024/01/21 03:27:17;;;;;;;37.78;21.58;;;;;;;;;;5035211;28;20320;-72
2024/01/21 03:29:43;;;;;;;32.42;20.27;;;;;;;;;;5035191;28;20202;-72
2024/01/21 03:32:11;;;;;;;33.80;20.75;;;;;;;;;;5035238;28;20225;-72
2024/01/21 03:34:41;;;;;;;33.30;21.20;;;;;;;;;;5035193;28;20329;-72
2024/01/21 03:37:07;;;;;;;35.45;20.65;;;;;;;;;;5035198;28;20743;-72
2024/01/21 03:39:33;;;;;;;33.85;19.55;;;;;;;;;;5034778;28;20615;-72
2024/01/21 03:42:00;;;;;;;37.60;21.17;;;;;;;;;;5034929;28;20578;-71
2024/01/21 03:44:26;;;;;;;38.22;20.75;;;;;;;;;;5034743;28;20622;-71
2024/01/21 03:46:52;;;;;;;35.55;21.08;;;;;;;;;;5034832;28;20705;-71
2024/01/21 03:49:20;;;;;;;34.08;20.42;;;;;;;;;;5034682;28;20671;-71
2024/01/21 03:51:46;;;;;;;30.30;18.85;;;;;;;;;;5034687;28;20641;-72
2024/01/21 03:54:12;;;;;;;36.72;20.52;;;;;;;;;;5034734;28;20575;-72
2024/01/21 03:56:38;;;;;;;33.40;19.33;;;;;;;;;;5034368;28;20287;-72
2024/01/21 03:59:05;;;;;;;33.90;18.70;;;;;;;;;;5034515;28;20272;-72
2024/01/21 04:01:31;;;;;;;34.15;18.42;;;;;;;;;;5034557;28;20209;-72
2024/01/21 04:03:57;;;;;;;30.83;18.75;;;;;;;;;;5034325;28;20201;-72
2024/01/21 04:06:25;;;;;;;30.90;19.05;;;;;;;;;;5034665;28;20224;-71
2024/01/21 04:08:51;;;;;;;30.52;18.83;;;;;;;;;;5034262;28;20697;-72
2024/01/21 04:11:17;;;;;;;31.10;18.67;;;;;;;;;;5034381;28;20674;-72
2024/01/21 04:13:43;;;;;;;33.47;18.27;;;;;;;;;;5034240;28;20229;-72
2024/01/21 04:16:10;;;;;;;30.98;18.45;;;;;;;;;;5034070;28;20271;-72
2024/01/21 04:18:36;;;;;;;33.78;18.65;;;;;;;;;;5034163;28;20264;-72
2024/01/21 04:21:02;;;;;;;34.10;18.83;;;;;;;;;;5034142;28;20210;-72
2024/01/21 04:23:30;;;;;;;29.20;18.55;;;;;;;;;;5034327;28;20251;-72
2024/01/21 04:25:56;;;;;;;33.70;18.65;;;;;;;;;;5034305;28;20637;-72
2024/01/21 04:28:22;;;;;;;30.70;18.92;;;;;;;;;;5034409;28;20206;-72
2024/01/21 04:30:49;;;;;;;29.83;19.08;;;;;;;;;;5034127;28;20255;-72
2024/01/21 04:33:15;;;;;;;33.03;19.95;;;;;;;;;;5034126;28;20213;-72
2024/01/21 04:35:41;;;;;;;29.55;18.60;;;;;;;;;;5033859;28;20221;-72
2024/01/21 04:38:07;;;;;;;38.10;20.02;;;;;;;;;;5033955;28;20202;-72
2024/01/21 04:40:35;;;;;;;35.22;20.05;;;;;;;;;;5033642;28;20599;-72
2024/01/21 04:43:01;;;;;;;39.92;20.42;;;;;;;;;;5034275;28;20310;-72
2024/01/21 04:45:27;;;;;;;35.28;19.23;;;;;;;;;;5034089;28;20218;-72
2024/01/21 04:47:54;;;;;;;34.53;19.48;;;;;;;;;;5037906;28;20197;-72
2024/01/21 04:50:20;;;;;;;32.63;19.38;;;;;;;;;;5037770;28;20265;-72
2024/01/21 04:52:46;;;;;;;34.90;19.35;;;;;;;;;;5033461;28;20579;-72
2024/01/21 04:55:12;;;;;;;30.90;18.05;;;;;;;;;;5033387;28;20202;-72
2024/01/21 04:57:40;;;;;;;31.63;17.98;;;;;;;;;;5033572;28;20332;-72
2024/01/21 05:00:07;;;;;;;30.42;17.85;;;;;;;;;;5033949;28;20289;-72
2024/01/21 05:02:33;;;;;;;28.75;17.15;;;;;;;;;;5033706;28;20204;-72
2024/01/21 05:05:00;;;;;;;32.83;17.73;;;;;;;;;;5033335;28;20198;-72
2024/01/21 05:07:26;;;;;;;31.33;18.38;;;;;;;;;;5033184;28;20202;-72
2024/01/21 05:09:52;;;;;;;28.65;17.63;;;;;;;;;;5033413;28;20198;-72
2024/01/21 05:12:18;;;;;;;32.08;19.02;;;;;;;;;;5033322;28;20213;-72
2024/01/21 05:14:46;;;;;;;28.40;17.50;;;;;;;;;;5033555;28;20201;-72
2024/01/21 05:17:12;;;;;;;30.25;17.75;;;;;;;;;;5033337;28;20271;-72
2024/01/21 05:19:38;;;;;;;26.23;16.95;;;;;;;;;;5032874;28;20197;-72
2024/01/21 05:22:05;;;;;;;29.85;17.73;;;;;;;;;;5032869;28;20663;-72
2024/01/21 05:24:31;;;;;;;28.85;16.45;;;;;;;;;;5033981;28;20281;-72
2024/01/21 05:26:57;;;;;;;34.30;18.58;;;;;;;;;;5034512;28;20217;-72
2024/01/21 05:29:23;;;;;;;27.90;16.58;;;;;;;;;;5033670;28;20256;-72
2024/01/21 05:31:51;;;;;;;28.15;17.50;;;;;;;;;;5031907;28;20206;-72
2024/01/21 05:34:17;;;;;;;26.38;16.13;;;;;;;;;;5032734;28;20197;-72
2024/01/21 05:36:43;;;;;;;28.35;17.48;;;;;;;;;;5032580;28;20271;-72
2024/01/21 05:39:10;;;;;;;30.20;17.85;;;;;;;;;;5032902;28;20571;-71
2024/01/21 05:41:36;;;;;;;27.98;16.63;;;;;;;;;;5033049;28;20293;-71
2024/01/21 05:44:02;;;;;;;29.00;17.27;;;;;;;;;;5032877;28;20194;-71
2024/01/21 05:46:28;;;;;;;27.45;17.27;;;;;;;;;;5032702;28;20217;-71
2024/01/21 05:48:56;;;;;;;25.95;16.00;;;;;;;;;;5032479;28;20221;-72
2024/01/21 05:51:22;;;;;;;26.48;16.67;;;;;;;;;;5032574;28;20202;-71
2024/01/21 05:53:49;;;;;;;26.33;16.25;;;;;;;;;;5032406;28;20221;-72
2024/01/21 05:56:17;;;;;;;29.35;16.48;;;;;;;;;;5032447;28;20224;-72
2024/01/21 05:58:43;;;;;;;26.95;16.33;;;;;;;;;;5031936;28;20733;-72
2024/01/21 06:01:10;;;;;;;26.35;16.45;;;;;;;;;;5032542;28;20580;-71
2024/01/21 06:03:36;;;;;;;32.33;17.08;;;;;;;;;;5031997;28;20205;-72
2024/01/21 06:06:04;;;;;;;29.25;17.63;;;;;;;;;;5032229;28;20225;-72
2024/01/21 06:08:30;;;;;;;30.50;17.50;;;;;;;;;;5032333;28;20205;-71
2024/01/21 06:10:56;;;;;;;29.20;17.58;;;;;;;;;;5032312;28;20198;-71
2024/01/21 06:13:23;;;;;;;28.90;17.50;;;;;;;;;;5032126;28;20213;-72
2024/01/21 06:15:49;;;;;;;32.90;18.42;;;;;;;;;;5031880;28;20217;-71
2024/01/21 06:18:15;;;;;;;31.60;17.40;;;;;;;;;;5031703;28;20198;-71
2024/01/21 06:20:41;;;;;;;30.80;18.08;;;;;;;;;;5032040;28;20198;-71
2024/01/21 06:23:09;;;;;;;29.73;18.77;;;;;;;;;;5031761;28;20667;-71
2024/01/21 06:25:36;;;;;;;31.05;17.73;;;;;;;;;;5032017;28;20217;-72
2024/01/21 06:28:03;;;;;;;27.85;17.10;;;;;;;;;;5031986;28;20205;-72
2024/01/21 06:30:30;;;;;;;28.50;17.27;;;;;;;;;;5031887;28;20198;-71
2024/01/21 06:32:56;;;;;;;31.08;17.83;;;;;;;;;;5031615;28;20221;-71
2024/01/21 06:35:22;;;;;;;30.52;17.70;;;;;;;;;;5031667;28;20729;-72
2024/01/21 06:37:48;;;;;;;25.88;16.90;;;;;;;;;;5031754;28;20206;-72
2024/01/21 06:40:16;;;;;;;26.98;16.83;;;;;;;;;;5032065;28;20255;-72
2024/01/21 06:42:42;;;;;;;25.65;15.48;;;;;;;;;;5031712;28;20210;-71
2024/01/21 06:45:12;;;;;;;24.98;16.75;;;;;;;;;;5032055;28;20581;-72
2024/01/21 06:47:38;;;;;;;28.38;16.10;;;;;;;;;;5031213;28;20662;-63
2024/01/21 06:50:04;;;;;;;29.48;18.15;;;;;;;;;;5023704;28;20205;-63
2024/01/21 06:52:31;;;;;;;26.10;16.00;;;;;;;;;;5031640;28;20205;-63
2024/01/21 06:54:57;;;;;;;27.25;16.65;;;;;;;;;;5031447;28;20205;-64
2024/01/21 06:57:25;;;;;;;32.90;17.40;;;;;;;;;;5031089;28;20682;-63
2024/01/21 06:59:51;;;;;;;32.55;18.17;;;;;;;;;;5031235;28;20628;-63
2024/01/21 07:02:18;;;;;;;28.50;17.90;;;;;;;;;;5031243;28;20208;-62
2024/01/21 07:04:44;;;;;;;27.10;17.15;;;;;;;;;;5031062;28;20558;-63
2024/01/21 07:07:10;;;;;;;30.40;16.88;;;;;;;;;;5031705;28;20221;-63
2024/01/21 07:09:40;;;;;;;28.80;17.73;;;;;;;;;;5031422;28;20197;-62
2024/01/21 07:12:06;;;;;;;28.23;16.65;;;;;;;;;;5031188;28;20240;-63
2024/01/21 07:14:34;;;;;;;28.15;17.90;;;;;;;;;;5031063;28;20214;-63
2024/01/21 07:17:00;;;;;;;32.08;18.13;;;;;;;;;;5031131;28;20225;-62
2024/01/21 07:19:27;;;;;;;27.00;16.88;;;;;;;;;;5031128;28;20194;-62
2024/01/21 07:21:53;;;;;;;26.95;16.70;;;;;;;;;;5030906;28;20701;-62
2024/01/21 07:24:19;;;;;;;29.90;17.67;;;;;;;;;;5031069;28;20655;-62
2024/01/21 07:26:46;;;;;;;28.10;17.55;;;;;;;;;;5030881;28;20643;-62
2024/01/21 07:29:13;;;;;;;27.08;17.45;;;;;;;;;;5031082;28;20293;-63
2024/01/21 07:31:40;;;;;;;28.17;16.58;;;;;;;;;;5031284;28;20249;-62
2024/01/21 07:34:09;;;;;;;25.75;16.23;;;;;;;;;;5030796;28;20614;-64
2024/01/21 07:36:35;;;;;;;26.25;15.15;;;;;;;;;;5030997;28;20706;-62
2024/01/21 07:39:00;;;;;;;25.75;15.85;;;;;;;;;;5030627;28;20696;-62
2024/01/21 07:41:26;;;;;;;25.15;16.08;;;;;;;;;;5031037;28;20198;-62
2024/01/21 07:43:53;;;;;;;26.65;16.23;;;;;;;;;;5030654;28;20623;-63
2024/01/21 07:46:19;;;;;;;28.75;16.75;;;;;;;;;;5031051;28;20218;-63
2024/01/21 07:48:46;;;;;;;25.85;16.10;;;;;;;;;;5030820;28;20206;-62
2024/01/21 07:51:13;;;;;;;28.55;18.13;;;;;;;;;;5031276;28;20202;-63
2024/01/21 07:53:39;;;;;;;25.48;16.52;;;;;;;;;;5030716;28;20762;-63
2024/01/21 07:56:06;;;;;;;31.15;18.08;;;;;;;;;;5033124;28;20742;-62
2024/01/21 07:58:32;;;;;;;26.35;16.52;;;;;;;;;;5034044;28;20627;-63
2024/01/21 08:00:58;;;;;;;28.65;17.90;;;;;;;;;;5034270;28;20573;-63
2024/01/21 08:03:24;;;;;;;27.50;17.98;;;;;;;;;;5041788;28;20627;-63
2024/01/21 08:05:53;;;;;;;28.02;16.75;;;;;;;;;;5034011;28;20664;-63
2024/01/21 08:08:19;;;;;;;27.83;18.63;;;;;;;;;;5034206;28;20667;-64
2024/01/21 08:10:45;;;;;;;24.05;16.00;;;;;;;;;;5034180;28;20194;-62
2024/01/21 08:13:11;;;;;;;25.88;16.45;;;;;;;;;;5033960;28;20295;-63
2024/01/21 08:15:38;;;;;;;28.42;16.25;;;;;;;;;;5034213;28;20217;-62
2024/01/21 08:18:05;;;;;;;25.30;15.70;;;;;;;;;;5033903;28;20297;-63
2024/01/21 08:20:31;;;;;;;24.55;15.70;;;;;;;;;;5034230;28;20205;-63
2024/01/21 08:23:00;;;;;;;25.33;15.88;;;;;;;;;;5033797;28;20202;-63
2024/01/21 08:25:26;;;;;;;25.00;15.90;;;;;;;;;;5033696;28;20217;-63
2024/01/21 08:27:53;;;;;;;23.50;15.25;;;;;;;;;;5034041;28;20212;-62
2024/01/21 08:30:19;;;;;;;21.38;14.30;;;;;;;;;;5033959;28;20666;-63
2024/01/21 08:32:45;;;;;;;25.75;16.90;;;;;;;;;;5033705;28;20205;-63
2024/01/21 08:35:12;;;;;;;31.10;18.13;;;;;;;;;;5033806;28;20248;-63
2024/01/21 08:37:38;;;;;;;24.58;16.83;;;;;;;;;;5033733;28;20202;-63
2024/01/21 08:40:06;;;;;;;29.98;18.77;;;;;;;;;;5033925;28;20245;-63
2024/01/21 08:42:33;;;;;;;25.27;15.43;;;;;;;;;;5033862;28;20202;-63
2024/01/21 08:44:59;;;;;;;21.88;14.18;;;;;;;;;;5033640;28;20202;-64
2024/01/21 08:47:25;;;;;;;25.05;15.35;;;;;;;;;;5033517;28;20205;-63
2024/01/21 08:49:51;;;;;;;21.85;14.77;;;;;;;;;;5033497;28;20209;-63
2024/01/21 08:52:18;;;;;;;22.05;14.48;;;;;;;;;;5033454;28;20251;-63
2024/01/21 08:54:44;;;;;;;22.05;13.65;;;;;;;;;;5033248;28;20275;-63
2024/01/21 08:57:12;;;;;;;25.80;15.13;;;;;;;;;;5033485;28;20222;-64
2024/01/21 08:59:38;;;;;;;21.55;15.32;;;;;;;;;;5033569;28;20202;-63
2024/01/21 09:02:04;;;;;;;23.05;15.43;;;;;;;;;;5033491;28;20205;-63
2024/01/21 09:04:31;;;;;;;23.65;14.90;;;;;;;;;;5033511;28;20602;-63
2024/01/21 09:06:57;;;;;;;23.90;15.55;;;;;;;;;;5032113;28;20222;-62
2024/01/21 09:09:23;;;;;;;26.52;16.80;;;;;;;;;;5033239;28;20201;-62
2024/01/21 09:11:50;;;;;;;26.15;15.43;;;;;;;;;;5033415;28;20202;-62
2024/01/21 09:14:18;;;;;;;22.92;15.57;;;;;;;;;;5033242;28;20253;-63
2024/01/21 09:16:44;;;;;;;25.15;16.10;;;;;;;;;;5033197;28;20661;-64
2024/01/21 09:19:12;;;;;;;22.50;15.02;;;;;;;;;;5032918;28;20550;-63
2024/01/21 09:21:38;;;;;;;25.67;15.98;;;;;;;;;;5033082;28;20202;-63
2024/01/21 09:24:05;;;;;;;26.10;16.25;;;;;;;;;;5033056;28;20206;-63
2024/01/21 09:26:31;;;;;;;25.65;17.08;;;;;;;;;;5033114;28;20702;-63
2024/01/21 09:28:58;;;;;;;24.92;16.52;;;;;;;;;;5032870;28;20201;-63
2024/01/21 09:31:25;;;;;;;24.90;16.10;;;;;;;;;;5033125;28;20268;-63
2024/01/21 09:33:52;;;;;;;23.80;15.35;;;;;;;;;;5032813;28;20217;-63
2024/01/21 09:36:19;;;;;;;21.45;14.27;;;;;;;;;;5032676;28;20222;-63
2024/01/21 09:38:45;;;;;;;23.20;14.77;;;;;;;;;;5032869;28;20305;-64
2024/01/21 09:41:14;;;;;;;22.17;14.80;;;;;;;;;;5032716;28;20207;-62
2024/01/21 09:43:41;;;;;;;22.70;14.85;;;;;;;;;;5032763;28;20244;-63
2024/01/21 09:46:08;;;;;;;23.02;14.90;;;;;;;;;;5032498;28;20226;-63
2024/01/21 09:48:36;;;;;;;23.08;15.20;;;;;;;;;;5032539;28;20202;-62
2024/01/21 09:51:03;;;;;;;21.35;14.98;;;;;;;;;;5032479;28;20733;-63
2024/01/21 09:53:29;;;;;;;23.42;15.45;;;;;;;;;;5032552;28;20225;-62
2024/01/21 09:55:56;;;;;;;21.67;14.70;;;;;;;;;;5032397;28;20615;-62
2024/01/21 09:58:23;;;;;;;20.50;14.75;;;;;;;;;;5024266;28;20202;-62
2024/01/21 10:00:52;;;;;;;21.33;14.63;;;;;;;;;;5032488;28;20576;-62
2024/01/21 10:03:18;;;;;;;21.00;13.70;;;;;;;;;;5032170;28;20285;-63
2024/01/21 10:05:46;;;;;;;21.85;13.95;;;;;;;;;;5032759;28;20218;-62
2024/01/21 10:08:13;;;;;;;21.23;13.32;;;;;;;;;;5032492;28;20201;-62
2024/01/21 10:10:42;;;;;;;21.52;14.10;;;;;;;;;;5032874;28;20208;-63
2024/01/21 10:13:08;;;;;;;20.83;15.10;;;;;;;;;;5032148;28;20210;-63
2024/01/21 10:15:35;;;;;;;23.75;15.55;;;;;;;;;;5032104;28;20267;-63
2024/01/21 10:18:01;;;;;;;24.27;15.73;;;;;;;;;;5031465;28;20198;-63
2024/01/21 10:20:28;;;;;;;27.15;16.38;;;;;;;;;;5032190;28;20206;-62
2024/01/21 10:23:08;;;;;;;23.38;15.65;;;;;;;;;;5032193;28;20259;-63
2024/01/21 10:25:34;;;;;;;23.13;15.25;;;;;;;;;;5025419;28;20213;-63
2024/01/21 10:28:00;;;;;;;24.90;16.38;;;;;;;;;;5031883;28;20335;-62
2024/01/21 10:30:27;;;;;;;23.63;15.68;;;;;;;;;;5023849;28;20194;-62
2024/01/21 10:32:53;;;;;;;21.88;14.80;;;;;;;;;;5032014;28;20209;-63
2024/01/21 10:35:19;;;;;;;23.67;14.38;;;;;;;;;;5031688;28;20222;-63
2024/01/21 10:37:45;;;;;;;22.77;14.30;;;;;;;;;;5032043;28;20198;-62
2024/01/21 10:40:13;;;;;;;20.15;13.60;;;;;;;;;;5032215;28;20201;-62
2024/01/21 10:42:40;;;;;;;21.38;14.63;;;;;;;;;;5038390;28;20233;-62
2024/01/21 10:45:07;;;;;;;21.98;14.60;;;;;;;;;;5038541;28;20216;-63
2024/01/21 10:47:34;;;;;;;18.80;13.10;;;;;;;;;;5037619;28;20258;-62
2024/01/21 10:50:01;;;;;;;21.00;14.38;;;;;;;;;;5037659;28;20255;-62
2024/01/21 10:52:27;;;;;;;21.80;14.23;;;;;;;;;;5037778;28;20201;-62
2024/01/21 10:54:54;;;;;;;24.13;14.32;;;;;;;;;;5037899;28;20225;-62
2024/01/21 10:57:21;;;;;;;19.88;13.82;;;;;;;;;;5036235;28;20284;-63
2024/01/21 10:59:48;;;;;;;26.92;15.75;;;;;;;;;;5037575;28;20206;-62
2024/01/21 11:02:14;;;;;;;22.23;15.23;;;;;;;;;;5036658;28;20224;-62
2024/01/21 11:04:41;;;;;;;27.50;15.90;;;;;;;;;;5031696;28;20281;-61
2024/01/21 11:07:11;;;;;;;26.80;15.77;;;;;;;;;;5031941;28;20224;-62
2024/01/21 11:09:38;;;;;;;24.75;15.32;;;;;;;;;;5031919;28;20259;-62
2024/01/21 11:12:05;;;;;;;27.40;14.38;;;;;;;;;;5032236;28;20256;-62
2024/01/21 11:14:33;;;;;;;22.60;13.20;;;;;;;;;;5023679;28;20213;-62
2024/01/21 11:17:00;;;;;;;20.42;13.77;;;;;;;;;;5031499;28;20217;-62
2024/01/21 11:19:30;;;;;;;19.55;14.07;;;;;;;;;;5031443;28;20296;-62
2024/01/21 11:21:58;;;;;;;17.88;13.48;;;;;;;;;;5031635;28;20206;-61
2024/01/21 11:24:28;;;;;;;18.75;13.10;;;;;;;;;;5031517;28;20209;-62
2024/01/21 11:26:55;;;;;;;19.17;13.40;;;;;;;;;;5031303;28;20222;-62
2024/01/21 11:29:22;;;;;;;18.30;12.60;;;;;;;;;;5031265;28;20202;-61
2024/01/21 11:31:50;;;;;;;18.95;12.95;;;;;;;;;;5035311;28;20605;-61
2024/01/21 11:34:17;;;;;;;16.88;12.27;;;;;;;;;;5034933;28;20221;-61
2024/01/21 11:36:44;;;;;;;24.40;14.18;;;;;;;;;;5035226;28;20272;-63
2024/01/21 11:39:10;;;;;;;18.13;13.07;;;;;;;;;;5034802;28;20198;-62
2024/01/21 11:41:39;;;;;;;26.08;14.30;;;;;;;;;;5035335;28;20198;-63
2024/01/21 11:44:09;;;;;;;19.20;13.15;;;;;;;;;;5035366;28;20202;-61
2024/01/21 11:46:35;;;;;;;21.63;13.63;;;;;;;;;;5027131;28;20301;-62
2024/01/21 11:49:04;;;;;;;20.27;12.98;;;;;;;;;;5034780;28;20225;-62
2024/01/21 11:51:30;;;;;;;21.70;13.55;;;;;;;;;;5034623;28;20202;-60
2024/01/21 11:53:56;;;;;;;20.20;13.23;;;;;;;;;;5034962;28;20213;-61
2024/01/21 11:56:23;;;;;;;22.08;13.77;;;;;;;;;;5034845;28;20275;-60
2024/01/21 11:58:49;;;;;;;20.35;13.60;;;;;;;;;;5028266;28;20206;-59
2024/01/21 12:01:15;;;;;;;21.42;13.50;;;;;;;;;;5027856;28;20283;-57
2024/01/21 12:03:41;;;;;;;19.42;13.38;;;;;;;;;;5028337;28;20210;-58
2024/01/21 12:06:11;;;;;;;21.52;14.23;;;;;;;;;;5030255;28;20225;-59
2024/01/21 12:08:41;;;;;;;19.27;13.05;;;;;;;;;;5026072;28;20285;-59
2024/01/21 12:11:07;;;;;;;19.60;13.40;;;;;;;;;;5028294;28;20229;-61
2024/01/21 12:13:33;;;;;;;19.52;13.45;;;;;;;;;;5020749;28;20210;-61
2024/01/21 12:16:00;;;;;;;22.27;14.32;;;;;;;;;;5028571;28;20221;-61
2024/01/21 12:18:26;;;;;;;22.15;14.43;;;;;;;;;;5032558;28;20202;-59
2024/01/21 12:20:52;;;;;;;23.23;13.68;;;;;;;;;;5034173;28;20201;-60
2024/01/21 12:23:21;;;;;;;19.90;12.95;;;;;;;;;;5034388;28;20229;-61
2024/01/21 12:25:48;;;;;;;15.50;12.50;;;;;;;;;;5033653;28;20272;-59
2024/01/21 12:28:14;;;;;;;21.30;13.60;;;;;;;;;;5030585;28;20256;-59
2024/01/21 12:30:40;;;;;;;17.13;12.57;;;;;;;;;;5033766;28;20206;-61
2024/01/21 12:33:07;;;;;;;20.35;12.25;;;;;;;;;;5034126;28;20206;-60
2024/01/21 12:35:33;;;;;;;23.77;12.77;;;;;;;;;;5033914;28;20222;-62
2024/01/21 12:37:59;;;;;;;19.38;13.13;;;;;;;;;;5033935;28;20202;-60
2024/01/21 12:40:27;;;;;;;18.83;12.77;;;;;;;;;;5033459;28;20751;-60
2024/01/21 12:42:54;;;;;;;18.77;13.23;;;;;;;;;;5034296;28;20202;-60
2024/01/21 12:45:20;;;;;;;18.23;11.95;;;;;;;;;;5033981;28;20741;-61
2024/01/21 12:47:46;;;;;;;18.60;11.80;;;;;;;;;;5033660;28;20198;-59
2024/01/21 12:50:13;;;;;;;17.65;11.55;;;;;;;;;;5033812;28;20732;-60
2024/01/21 12:52:39;;;;;;;19.65;12.15;;;;;;;;;;5025466;28;20662;-60
2024/01/21 12:55:06;;;;;;;16.42;11.82;;;;;;;;;;5033647;28;20268;-60
2024/01/21 12:57:33;;;;;;;16.65;12.35;;;;;;;;;;5033526;28;20217;-61
2024/01/21 13:00:00;;;;;;;20.85;12.43;;;;;;;;;;5033794;28;20825;-61
2024/01/21 13:02:27;;;;;;;19.50;11.98;;;;;;;;;;5033383;28;20217;-59
2024/01/21 13:04:53;;;;;;;20.13;12.40;;;;;;;;;;5033386;28;20662;-59
2024/01/21 13:07:20;;;;;;;17.58;12.63;;;;;;;;;;5033269;28;20714;-61
2024/01/21 13:09:46;;;;;;;17.83;12.07;;;;;;;;;;5033454;28;20197;-60
2024/01/21 13:12:12;;;;;;;19.63;12.20;;;;;;;;;;5033446;28;20201;-60
2024/01/21 13:14:40;;;;;;;15.20;11.75;;;;;;;;;;5033367;28;20264;-60
2024/01/21 13:17:06;;;;;;;15.38;11.65;;;;;;;;;;5033193;28;20272;-60
2024/01/21 13:19:32;;;;;;;14.40;11.38;;;;;;;;;;5033088;28;20202;-60
2024/01/21 13:22:04;;;;;;;18.00;12.38;;;;;;;;;;5033089;28;20210;-60
2024/01/21 13:24:31;;;;;;;14.73;11.00;;;;;;;;;;5033082;28;20208;-60
2024/01/21 13:27:07;;;;;;;16.65;11.70;;;;;;;;;;5033034;28;20230;-60
2024/01/21 13:32:18;;;;;;;13.98;11.32;;;;;;;;;;5032988;28;20204;-60
2024/01/21 13:34:45;;;;;;;18.05;11.80;;;;;;;;;;5024961;28;20221;-60
2024/01/21 13:37:12;;;;;;;14.85;10.90;;;;;;;;;;5033336;28;20226;-60
2024/01/21 13:39:39;;;;;;;15.25;10.90;;;;;;;;;;5032494;28;20599;-60
2024/01/21 13:42:06;;;;;;;13.27;10.52;;;;;;;;;;5032510;28;20230;-60
2024/01/21 13:44:32;;;;;;;14.43;10.90;;;;;;;;;;5032873;28;20232;-60
2024/01/21 13:46:59;;;;;;;15.35;10.20;;;;;;;;;;5032763;28;20229;-60
2024/01/21 13:49:26;;;;;;;11.38;9.55;;;;;;;;;;5032677;28;20205;-61
2024/01/21 13:51:53;;;;;;;15.07;11.00;;;;;;;;;;5033402;28;20210;-61
2024/01/21 13:54:19;;;;;;;16.92;10.73;;;;;;;;;;5032499;28;20212;-61
2024/01/21 13:56:46;;;;;;;16.70;11.57;;;;;;;;;;5033005;28;20245;-61
2024/01/21 13:59:12;;;;;;;13.00;10.70;;;;;;;;;;5032828;28;20259;-61
2024/01/21 14:01:38;;;;;;;16.90;11.05;;;;;;;;;;5033089;28;20201;-62
2024/01/21 14:04:05;;;;;;;18.88;12.63;;;;;;;;;;5032320;28;20202;-61
2024/01/21 14:06:32;;;;;;;21.35;13.45;;;;;;;;;;5032668;28;20652;-61
2024/01/21 14:08:58;;;;;;;16.23;12.15;;;;;;;;;;5032073;28;20355;-61
2024/01/21 14:11:25;;;;;;;16.83;12.65;;;;;;;;;;5031989;28;20210;-61
2024/01/21 14:13:51;;;;;;;18.48;11.90;;;;;;;;;;5032429;28;20206;-61
2024/01/21 14:16:18;;;;;;;19.30;12.32;;;;;;;;;;5032218;28;20225;-62